sensor_id;sensor_type;location;lat;lon;timestamp;temperature;humidity
52787;DHT22;38661;53.152;5.846;2023-02-26T00:01:20;2.80;74.00
52787;DHT22;38661;53.152;5.846;2023-02-26T00:03:50;2.80;73.40
52787;DHT22;38661;53.152;5.846;2023-02-26T00:06:16;2.80;73.30
52787;DHT22;38661;53.152;5.846;2023-02-26T00:08:42;2.70;73.60
52787;DHT22;38661;53.152;5.846;2023-02-26T00:11:09;2.70;72.90
52787;DHT22;38661;53.152;5.846;2023-02-26T00:13:36;2.60;72.80
52787;DHT22;38661;53.152;5.846;2023-02-26T00:16:02;2.60;73.40
52787;DHT22;38661;53.152;5.846;2023-02-26T00:18:30;2.60;73.60
52787;DHT22;38661;53.152;5.846;2023-02-26T00:20:56;2.60;74.30
52787;DHT22;38661;53.152;5.846;2023-02-26T00:23:22;2.60;74.10
52787;DHT22;38661;53.152;5.846;2023-02-26T00:25:49;2.60;74.10
52787;DHT22;38661;53.152;5.846;2023-02-26T00:28:14;2.60;73.70
52787;DHT22;38661;53.152;5.846;2023-02-26T00:30:40;2.50;73.70
52787;DHT22;38661;53.152;5.846;2023-02-26T00:33:06;2.60;74.20
52787;DHT22;38661;53.152;5.846;2023-02-26T00:35:32;2.50;73.90
52787;DHT22;38661;53.152;5.846;2023-02-26T00:38:18;2.60;74.40
52787;DHT22;38661;53.152;5.846;2023-02-26T00:40:47;2.50;74.30
52787;DHT22;38661;53.152;5.846;2023-02-26T00:43:21;2.50;74.60
52787;DHT22;38661;53.152;5.846;2023-02-26T00:46:12;2.50;74.60
52787;DHT22;38661;53.152;5.846;2023-02-26T00:49:11;2.50;74.80
52787;DHT22;38661;53.152;5.846;2023-02-26T00:51:45;2.40;74.70
52787;DHT22;38661;53.152;5.846;2023-02-26T00:56:42;2.50;74.20
52787;DHT22;38661;53.152;5.846;2023-02-26T00:59:08;2.50;74.00
52787;DHT22;38661;53.152;5.846;2023-02-26T01:01:34;2.50;73.30
52787;DHT22;38661;53.152;5.846;2023-02-26T01:04:00;2.50;73.70
52787;DHT22;38661;53.152;5.846;2023-02-26T01:06:27;2.50;74.20
52787;DHT22;38661;53.152;5.846;2023-02-26T01:11:35;2.50;74.50
52787;DHT22;38661;53.152;5.846;2023-02-26T01:14:02;2.60;74.30
52787;DHT22;38661;53.152;5.846;2023-02-26T01:16:32;2.50;74.30
52787;DHT22;38661;53.152;5.846;2023-02-26T01:19:04;2.50;73.80
52787;DHT22;38661;53.152;5.846;2023-02-26T01:21:41;2.50;74.40
52787;DHT22;38661;53.152;5.846;2023-02-26T01:24:13;2.40;74.10
52787;DHT22;38661;53.152;5.846;2023-02-26T01:26:39;2.50;74.40
52787;DHT22;38661;53.152;5.846;2023-02-26T01:29:05;2.40;74.20
52787;DHT22;38661;53.152;5.846;2023-02-26T01:34:22;2.50;74.90
52787;DHT22;38661;53.152;5.846;2023-02-26T01:36:55;2.50;75.10
52787;DHT22;38661;53.152;5.846;2023-02-26T01:39:38;2.50;75.00
52787;DHT22;38661;53.152;5.846;2023-02-26T01:42:18;2.40;75.10
52787;DHT22;38661;53.152;5.846;2023-02-26T01:44:52;2.40;75.00
52787;DHT22;38661;53.152;5.846;2023-02-26T01:47:32;2.40;75.00
52787;DHT22;38661;53.152;5.846;2023-02-26T01:50:14;2.40;75.80
52787;DHT22;38661;53.152;5.846;2023-02-26T01:53:17;2.40;75.90
52787;DHT22;38661;53.152;5.846;2023-02-26T01:55:45;2.40;75.80
52787;DHT22;38661;53.152;5.846;2023-02-26T01:58:13;2.40;76.00
52787;DHT22;38661;53.152;5.846;2023-02-26T02:00:39;2.30;76.20
52787;DHT22;38661;53.152;5.846;2023-02-26T02:03:05;2.40;76.00
52787;DHT22;38661;53.152;5.846;2023-02-26T02:05:34;2.30;75.70
52787;DHT22;38661;53.152;5.846;2023-02-26T02:08:04;2.30;75.70
52787;DHT22;38661;53.152;5.846;2023-02-26T02:10:30;2.20;75.30
52787;DHT22;38661;53.152;5.846;2023-02-26T02:15:51;2.10;75.80
52787;DHT22;38661;53.152;5.846;2023-02-26T02:18:48;2.10;76.10
52787;DHT22;38661;53.152;5.846;2023-02-26T02:22:00;2.10;75.70
52787;DHT22;38661;53.152;5.846;2023-02-26T02:30:16;2.10;76.60
52787;DHT22;38661;53.152;5.846;2023-02-26T02:32:57;2.10;76.40
52787;DHT22;38661;53.152;5.846;2023-02-26T02:35:29;2.10;76.60
52787;DHT22;38661;53.152;5.846;2023-02-26T02:38:07;2.10;76.60
52787;DHT22;38661;53.152;5.846;2023-02-26T02:40:38;2.20;76.60
52787;DHT22;38661;53.152;5.846;2023-02-26T02:43:21;2.20;76.60
52787;DHT22;38661;53.152;5.846;2023-02-26T02:46:10;2.20;76.50
52787;DHT22;38661;53.152;5.846;2023-02-26T02:48:58;2.20;76.30
52787;DHT22;38661;53.152;5.846;2023-02-26T02:51:38;2.20;76.40
52787;DHT22;38661;53.152;5.846;2023-02-26T02:57:05;2.20;76.30
52787;DHT22;38661;53.152;5.846;2023-02-26T02:59:39;2.20;75.80
52787;DHT22;38661;53.152;5.846;2023-02-26T03:02:07;2.20;76.20
52787;DHT22;38661;53.152;5.846;2023-02-26T03:04:34;2.20;76.40
52787;DHT22;38661;53.152;5.846;2023-02-26T03:07:00;2.10;76.50
52787;DHT22;38661;53.152;5.846;2023-02-26T03:09:25;2.10;76.30
52787;DHT22;38661;53.152;5.846;2023-02-26T03:11:51;2.10;75.90
52787;DHT22;38661;53.152;5.846;2023-02-26T03:14:17;2.00;76.20
52787;DHT22;38661;53.152;5.846;2023-02-26T03:17:10;1.90;76.30
52787;DHT22;38661;53.152;5.846;2023-02-26T03:23:27;1.80;75.90
52787;DHT22;38661;53.152;5.846;2023-02-26T03:28:27;1.70;76.20
52787;DHT22;38661;53.152;5.846;2023-02-26T03:31:14;1.60;76.40
52787;DHT22;38661;53.152;5.846;2023-02-26T03:33:55;1.60;76.40
52787;DHT22;38661;53.152;5.846;2023-02-26T03:37:09;1.40;76.60
52787;DHT22;38661;53.152;5.846;2023-02-26T03:39:39;1.40;76.80
52787;DHT22;38661;53.152;5.846;2023-02-26T03:42:40;1.30;76.80
52787;DHT22;38661;53.152;5.846;2023-02-26T03:45:17;1.20;77.20
52787;DHT22;38661;53.152;5.846;2023-02-26T03:47:47;1.20;77.60
52787;DHT22;38661;53.152;5.846;2023-02-26T03:50:37;1.20;77.70
52787;DHT22;38661;53.152;5.846;2023-02-26T03:53:08;1.20;77.90
52787;DHT22;38661;53.152;5.846;2023-02-26T03:55:42;1.20;77.90
52787;DHT22;38661;53.152;5.846;2023-02-26T03:58:09;1.20;77.90
52787;DHT22;38661;53.152;5.846;2023-02-26T04:00:37;1.20;77.80
52787;DHT22;38661;53.152;5.846;2023-02-26T04:03:56;1.30;77.90
52787;DHT22;38661;53.152;5.846;2023-02-26T04:06:01;1.40;78.00
52787;DHT22;38661;53.152;5.846;2023-02-26T04:08:28;1.40;78.00
52787;DHT22;38661;53.152;5.846;2023-02-26T04:11:09;1.40;78.00
52787;DHT22;38661;53.152;5.846;2023-02-26T04:13:36;1.30;78.00
52787;DHT22;38661;53.152;5.846;2023-02-26T04:16:02;1.40;77.90
52787;DHT22;38661;53.152;5.846;2023-02-26T04:18:28;1.30;78.00
52787;DHT22;38661;53.152;5.846;2023-02-26T04:20:54;1.30;78.10
52787;DHT22;38661;53.152;5.846;2023-02-26T04:23:19;1.30;78.10
52787;DHT22;38661;53.152;5.846;2023-02-26T04:25:45;1.30;78.10
52787;DHT22;38661;53.152;5.846;2023-02-26T04:28:11;1.30;78.10
52787;DHT22;38661;53.152;5.846;2023-02-26T04:30:36;1.30;78.20
52787;DHT22;38661;53.152;5.846;2023-02-26T04:33:02;1.30;78.20
52787;DHT22;38661;53.152;5.846;2023-02-26T04:35:28;1.20;78.20
52787;DHT22;38661;53.152;5.846;2023-02-26T04:37:54;1.20;78.10
52787;DHT22;38661;53.152;5.846;2023-02-26T04:40:19;1.20;78.20
52787;DHT22;38661;53.152;5.846;2023-02-26T04:42:48;1.10;78.20
52787;DHT22;38661;53.152;5.846;2023-02-26T04:45:14;1.10;78.20
52787;DHT22;38661;53.152;5.846;2023-02-26T04:47:39;1.10;78.30
52787;DHT22;38661;53.152;5.846;2023-02-26T04:50:06;1.00;78.40
52787;DHT22;38661;53.152;5.846;2023-02-26T04:52:32;1.00;78.60
52787;DHT22;38661;53.152;5.846;2023-02-26T04:54:57;1.00;78.70
52787;DHT22;38661;53.152;5.846;2023-02-26T04:57:23;0.90;78.70
52787;DHT22;38661;53.152;5.846;2023-02-26T04:59:49;0.90;78.80
52787;DHT22;38661;53.152;5.846;2023-02-26T05:02:14;0.90;78.80
52787;DHT22;38661;53.152;5.846;2023-02-26T05:04:40;0.90;78.80
52787;DHT22;38661;53.152;5.846;2023-02-26T05:07:06;0.80;78.80
52787;DHT22;38661;53.152;5.846;2023-02-26T05:09:32;0.80;79.00
52787;DHT22;38661;53.152;5.846;2023-02-26T05:11:57;0.70;79.20
52787;DHT22;38661;53.152;5.846;2023-02-26T05:14:23;0.70;79.20
52787;DHT22;38661;53.152;5.846;2023-02-26T05:16:49;0.70;79.30
52787;DHT22;38661;53.152;5.846;2023-02-26T05:19:15;0.60;79.40
52787;DHT22;38661;53.152;5.846;2023-02-26T05:21:41;0.60;79.50
52787;DHT22;38661;53.152;5.846;2023-02-26T05:24:07;0.60;79.50
52787;DHT22;38661;53.152;5.846;2023-02-26T05:26:32;0.60;79.50
52787;DHT22;38661;53.152;5.846;2023-02-26T05:28:58;0.60;79.70
52787;DHT22;38661;53.152;5.846;2023-02-26T05:31:24;0.50;79.80
52787;DHT22;38661;53.152;5.846;2023-02-26T05:33:51;0.50;79.90
52787;DHT22;38661;53.152;5.846;2023-02-26T05:36:17;0.50;79.90
52787;DHT22;38661;53.152;5.846;2023-02-26T05:38:43;0.50;79.90
52787;DHT22;38661;53.152;5.846;2023-02-26T05:41:08;0.50;79.90
52787;DHT22;38661;53.152;5.846;2023-02-26T05:43:34;0.50;79.90
52787;DHT22;38661;53.152;5.846;2023-02-26T05:46:00;0.50;79.90
52787;DHT22;38661;53.152;5.846;2023-02-26T05:48:26;0.60;79.90
52787;DHT22;38661;53.152;5.846;2023-02-26T05:50:52;0.60;79.80
52787;DHT22;38661;53.152;5.846;2023-02-26T05:53:19;0.60;79.90
52787;DHT22;38661;53.152;5.846;2023-02-26T05:55:45;0.60;79.80
52787;DHT22;38661;53.152;5.846;2023-02-26T05:58:10;0.60;79.80
52787;DHT22;38661;53.152;5.846;2023-02-26T06:00:36;0.50;79.80
52787;DHT22;38661;53.152;5.846;2023-02-26T06:03:02;0.60;79.80
52787;DHT22;38661;53.152;5.846;2023-02-26T06:05:28;0.50;79.80
52787;DHT22;38661;53.152;5.846;2023-02-26T06:07:53;0.50;80.00
52787;DHT22;38661;53.152;5.846;2023-02-26T06:10:19;0.50;79.70
52787;DHT22;38661;53.152;5.846;2023-02-26T06:12:45;0.50;79.80
52787;DHT22;38661;53.152;5.846;2023-02-26T06:15:11;0.50;79.80
52787;DHT22;38661;53.152;5.846;2023-02-26T06:17:37;0.50;80.00
52787;DHT22;38661;53.152;5.846;2023-02-26T06:20:04;0.50;80.00
52787;DHT22;38661;53.152;5.846;2023-02-26T06:22:30;0.40;80.10
52787;DHT22;38661;53.152;5.846;2023-02-26T06:24:56;0.40;80.10
52787;DHT22;38661;53.152;5.846;2023-02-26T06:27:23;0.40;80.10
52787;DHT22;38661;53.152;5.846;2023-02-26T06:29:49;0.40;80.20
52787;DHT22;38661;53.152;5.846;2023-02-26T06:32:14;0.40;80.30
52787;DHT22;38661;53.152;5.846;2023-02-26T06:34:40;0.40;80.40
52787;DHT22;38661;53.152;5.846;2023-02-26T06:37:06;0.40;80.30
52787;DHT22;38661;53.152;5.846;2023-02-26T06:39:32;0.30;80.20
52787;DHT22;38661;53.152;5.846;2023-02-26T06:41:58;0.30;80.20
52787;DHT22;38661;53.152;5.846;2023-02-26T06:44:24;0.20;80.10
52787;DHT22;38661;53.152;5.846;2023-02-26T06:46:50;0.20;80.20
52787;DHT22;38661;53.152;5.846;2023-02-26T06:49:16;0.20;80.30
52787;DHT22;38661;53.152;5.846;2023-02-26T06:51:41;0.20;80.30
52787;DHT22;38661;53.152;5.846;2023-02-26T06:54:07;0.20;80.50
52787;DHT22;38661;53.152;5.846;2023-02-26T06:56:33;0.20;80.40
52787;DHT22;38661;53.152;5.846;2023-02-26T06:58:59;0.20;80.50
52787;DHT22;38661;53.152;5.846;2023-02-26T07:01:25;0.20;80.60
52787;DHT22;38661;53.152;5.846;2023-02-26T07:03:51;0.20;80.70
52787;DHT22;38661;53.152;5.846;2023-02-26T07:06:17;0.20;80.80
52787;DHT22;38661;53.152;5.846;2023-02-26T07:08:43;0.20;81.10
52787;DHT22;38661;53.152;5.846;2023-02-26T07:11:09;0.30;81.30
52787;DHT22;38661;53.152;5.846;2023-02-26T07:13:37;0.30;81.40
52787;DHT22;38661;53.152;5.846;2023-02-26T07:16:04;0.30;81.30
52787;DHT22;38661;53.152;5.846;2023-02-26T07:18:35;0.40;81.50
52787;DHT22;38661;53.152;5.846;2023-02-26T07:21:02;0.40;81.60
52787;DHT22;38661;53.152;5.846;2023-02-26T07:23:28;0.50;81.90
52787;DHT22;38661;53.152;5.846;2023-02-26T07:25:53;0.50;82.00
52787;DHT22;38661;53.152;5.846;2023-02-26T07:28:19;0.50;81.80
52787;DHT22;38661;53.152;5.846;2023-02-26T07:30:45;0.50;81.60
52787;DHT22;38661;53.152;5.846;2023-02-26T07:33:11;0.50;81.20
52787;DHT22;38661;53.152;5.846;2023-02-26T07:35:38;0.60;81.30
52787;DHT22;38661;53.152;5.846;2023-02-26T07:38:04;0.60;81.70
52787;DHT22;38661;53.152;5.846;2023-02-26T07:40:30;0.70;81.60
52787;DHT22;38661;53.152;5.846;2023-02-26T07:42:56;0.70;81.60
52787;DHT22;38661;53.152;5.846;2023-02-26T07:45:22;0.80;81.60
52787;DHT22;38661;53.152;5.846;2023-02-26T07:47:52;0.80;81.60
52787;DHT22;38661;53.152;5.846;2023-02-26T07:50:19;0.90;81.50
52787;DHT22;38661;53.152;5.846;2023-02-26T07:52:46;1.00;81.50
52787;DHT22;38661;53.152;5.846;2023-02-26T07:55:13;1.10;81.20
52787;DHT22;38661;53.152;5.846;2023-02-26T07:57:38;1.20;81.10
52787;DHT22;38661;53.152;5.846;2023-02-26T08:00:05;1.20;81.00
52787;DHT22;38661;53.152;5.846;2023-02-26T08:02:31;1.30;81.20
52787;DHT22;38661;53.152;5.846;2023-02-26T08:04:56;1.50;81.00
52787;DHT22;38661;53.152;5.846;2023-02-26T08:07:22;1.60;81.20
52787;DHT22;38661;53.152;5.846;2023-02-26T08:09:48;1.60;81.30
52787;DHT22;38661;53.152;5.846;2023-02-26T08:12:14;1.70;81.20
52787;DHT22;38661;53.152;5.846;2023-02-26T08:14:39;1.90;81.00
52787;DHT22;38661;53.152;5.846;2023-02-26T08:17:07;1.90;80.80
52787;DHT22;38661;53.152;5.846;2023-02-26T08:19:33;1.90;80.70
52787;DHT22;38661;53.152;5.846;2023-02-26T08:21:58;2.00;80.70
52787;DHT22;38661;53.152;5.846;2023-02-26T08:24:24;2.10;80.70
52787;DHT22;38661;53.152;5.846;2023-02-26T08:26:50;2.20;80.60
52787;DHT22;38661;53.152;5.846;2023-02-26T08:29:16;2.20;80.60
52787;DHT22;38661;53.152;5.846;2023-02-26T08:31:42;2.30;80.60
52787;DHT22;38661;53.152;5.846;2023-02-26T08:34:08;2.40;80.50
52787;DHT22;38661;53.152;5.846;2023-02-26T08:36:34;2.50;80.60
52787;DHT22;38661;53.152;5.846;2023-02-26T08:39:00;2.50;80.40
52787;DHT22;38661;53.152;5.846;2023-02-26T08:41:26;2.60;80.30
52787;DHT22;38661;53.152;5.846;2023-02-26T08:43:54;2.70;80.30
52787;DHT22;38661;53.152;5.846;2023-02-26T08:46:20;2.80;80.10
52787;DHT22;38661;53.152;5.846;2023-02-26T08:48:46;2.80;79.90
52787;DHT22;38661;53.152;5.846;2023-02-26T08:51:11;2.90;79.80
52787;DHT22;38661;53.152;5.846;2023-02-26T08:53:37;3.00;79.50
52787;DHT22;38661;53.152;5.846;2023-02-26T08:56:04;3.10;79.40
52787;DHT22;38661;53.152;5.846;2023-02-26T08:58:30;3.10;79.30
52787;DHT22;38661;53.152;5.846;2023-02-26T09:00:56;3.30;79.10
52787;DHT22;38661;53.152;5.846;2023-02-26T09:03:21;3.50;79.00
52787;DHT22;38661;53.152;5.846;2023-02-26T09:05:47;3.50;78.90
52787;DHT22;38661;53.152;5.846;2023-02-26T09:08:13;3.70;78.60
52787;DHT22;38661;53.152;5.846;2023-02-26T09:10:41;3.80;78.40
52787;DHT22;38661;53.152;5.846;2023-02-26T09:13:07;3.90;77.90
52787;DHT22;38661;53.152;5.846;2023-02-26T09:15:33;4.00;77.60
52787;DHT22;38661;53.152;5.846;2023-02-26T09:17:59;4.10;77.30
52787;DHT22;38661;53.152;5.846;2023-02-26T09:20:25;4.20;76.70
52787;DHT22;38661;53.152;5.846;2023-02-26T09:22:51;4.40;76.40
52787;DHT22;38661;53.152;5.846;2023-02-26T09:25:17;4.60;75.60
52787;DHT22;38661;53.152;5.846;2023-02-26T09:27:43;4.70;74.30
52787;DHT22;38661;53.152;5.846;2023-02-26T09:30:09;4.70;73.40
52787;DHT22;38661;53.152;5.846;2023-02-26T09:32:35;4.70;73.80
52787;DHT22;38661;53.152;5.846;2023-02-26T09:35:01;4.70;73.50
52787;DHT22;38661;53.152;5.846;2023-02-26T09:37:27;4.60;73.70
52787;DHT22;38661;53.152;5.846;2023-02-26T09:39:53;4.60;73.40
52787;DHT22;38661;53.152;5.846;2023-02-26T09:45:29;4.60;73.70
52787;DHT22;38661;53.152;5.846;2023-02-26T09:47:56;4.60;73.70
52787;DHT22;38661;53.152;5.846;2023-02-26T09:55:42;4.50;73.40
52787;DHT22;38661;53.152;5.846;2023-02-26T09:58:27;4.50;73.50
52787;DHT22;38661;53.152;5.846;2023-02-26T10:11:58;4.70;72.00
52787;DHT22;38661;53.152;5.846;2023-02-26T10:14:36;4.70;72.10
52787;DHT22;38661;53.152;5.846;2023-02-26T10:19:47;4.60;72.30
52787;DHT22;38661;53.152;5.846;2023-02-26T10:22:27;4.60;72.80
52787;DHT22;38661;53.152;5.846;2023-02-26T10:25:04;4.60;72.40
52787;DHT22;38661;53.152;5.846;2023-02-26T10:27:41;4.70;72.20
52787;DHT22;38661;53.152;5.846;2023-02-26T10:30:38;4.70;72.50
52787;DHT22;38661;53.152;5.846;2023-02-26T10:36:39;5.00;72.50
52787;DHT22;38661;53.152;5.846;2023-02-26T10:39:30;5.30;72.10
52787;DHT22;38661;53.152;5.846;2023-02-26T10:42:00;5.50;70.80
52787;DHT22;38661;53.152;5.846;2023-02-26T10:44:36;5.70;69.80
52787;DHT22;38661;53.152;5.846;2023-02-26T10:47:30;6.00;70.10
52787;DHT22;38661;53.152;5.846;2023-02-26T10:50:07;6.20;68.30
52787;DHT22;38661;53.152;5.846;2023-02-26T10:52:35;6.40;67.00
52787;DHT22;38661;53.152;5.846;2023-02-26T10:58:13;6.80;66.80
52787;DHT22;38661;53.152;5.846;2023-02-26T11:00:41;7.00;67.20
52787;DHT22;38661;53.152;5.846;2023-02-26T11:03:17;6.90;67.10
52787;DHT22;38661;53.152;5.846;2023-02-26T11:05:44;6.80;66.10
52787;DHT22;38661;53.152;5.846;2023-02-26T11:11:00;6.50;65.60
52787;DHT22;38661;53.152;5.846;2023-02-26T11:13:29;6.40;66.50
52787;DHT22;38661;53.152;5.846;2023-02-26T11:15:57;6.20;66.80
52787;DHT22;38661;53.152;5.846;2023-02-26T11:18:30;6.10;67.30
52787;DHT22;38661;53.152;5.846;2023-02-26T11:21:04;5.90;67.50
52787;DHT22;38661;53.152;5.846;2023-02-26T11:23:30;5.80;68.40
52787;DHT22;38661;53.152;5.846;2023-02-26T11:26:08;5.80;68.90
52787;DHT22;38661;53.152;5.846;2023-02-26T11:28:44;5.80;69.60
52787;DHT22;38661;53.152;5.846;2023-02-26T11:31:11;6.00;69.50
52787;DHT22;38661;53.152;5.846;2023-02-26T11:33:44;6.20;68.60
52787;DHT22;38661;53.152;5.846;2023-02-26T11:36:21;6.30;69.00
52787;DHT22;38661;53.152;5.846;2023-02-26T11:39:06;6.30;68.80
52787;DHT22;38661;53.152;5.846;2023-02-26T11:41:38;6.40;67.00
52787;DHT22;38661;53.152;5.846;2023-02-26T11:44:08;6.60;67.10
52787;DHT22;38661;53.152;5.846;2023-02-26T11:46:51;6.60;67.00
52787;DHT22;38661;53.152;5.846;2023-02-26T11:49:21;6.70;67.40
52787;DHT22;38661;53.152;5.846;2023-02-26T11:52:14;7.00;67.00
52787;DHT22;38661;53.152;5.846;2023-02-26T11:54:43;7.30;66.60
52787;DHT22;38661;53.152;5.846;2023-02-26T11:57:23;7.60;66.00
52787;DHT22;38661;53.152;5.846;2023-02-26T11:59:50;7.90;65.70
52787;DHT22;38661;53.152;5.846;2023-02-26T12:02:23;8.10;64.40
52787;DHT22;38661;53.152;5.846;2023-02-26T12:04:52;8.40;65.10
52787;DHT22;38661;53.152;5.846;2023-02-26T12:07:20;8.60;64.10
52787;DHT22;38661;53.152;5.846;2023-02-26T12:09:46;8.80;62.80
52787;DHT22;38661;53.152;5.846;2023-02-26T12:17:42;8.10;62.10
52787;DHT22;38661;53.152;5.846;2023-02-26T12:20:24;8.00;63.00
52787;DHT22;38661;53.152;5.846;2023-02-26T12:23:06;7.80;62.50
52787;DHT22;38661;53.152;5.846;2023-02-26T12:25:57;7.60;62.90
52787;DHT22;38661;53.152;5.846;2023-02-26T12:28:52;7.50;63.70
52787;DHT22;38661;53.152;5.846;2023-02-26T12:45:38;8.60;61.90
52787;DHT22;38661;53.152;5.846;2023-02-26T12:48:43;8.80;60.10
52787;DHT22;38661;53.152;5.846;2023-02-26T12:51:36;9.00;60.10
52787;DHT22;38661;53.152;5.846;2023-02-26T12:57:13;9.40;60.10
52787;DHT22;38661;53.152;5.846;2023-02-26T13:00:06;9.70;57.90
52787;DHT22;38661;53.152;5.846;2023-02-26T13:03:06;10.00;58.60
52787;DHT22;38661;53.152;5.846;2023-02-26T13:08:22;10.20;58.00
52787;DHT22;38661;53.152;5.846;2023-02-26T13:13:59;10.50;57.20
52787;DHT22;38661;53.152;5.846;2023-02-26T13:16:48;10.70;55.70
52787;DHT22;38661;53.152;5.846;2023-02-26T13:19:28;10.60;54.90
52787;DHT22;38661;53.152;5.846;2023-02-26T13:22:04;10.50;56.30
52787;DHT22;38661;53.152;5.846;2023-02-26T13:24:39;10.50;56.90
52787;DHT22;38661;53.152;5.846;2023-02-26T13:27:07;10.50;56.60
52787;DHT22;38661;53.152;5.846;2023-02-26T13:32:41;10.60;55.40
52787;DHT22;38661;53.152;5.846;2023-02-26T13:35:32;10.70;55.60
52787;DHT22;38661;53.152;5.846;2023-02-26T13:38:02;10.90;54.90
52787;DHT22;38661;53.152;5.846;2023-02-26T13:44:04;11.00;54.60
52787;DHT22;38661;53.152;5.846;2023-02-26T13:46:11;10.90;54.60
52787;DHT22;38661;53.152;5.846;2023-02-26T13:49:01;10.20;52.70
52787;DHT22;38661;53.152;5.846;2023-02-26T13:54:47;9.90;54.40
52787;DHT22;38661;53.152;5.846;2023-02-26T13:59:51;10.30;55.30
52787;DHT22;38661;53.152;5.846;2023-02-26T14:04:53;10.30;55.10
52787;DHT22;38661;53.152;5.846;2023-02-26T14:10:52;9.50;55.30
52787;DHT22;38661;53.152;5.846;2023-02-26T14:13:16;9.50;56.60
52787;DHT22;38661;53.152;5.846;2023-02-26T14:16:09;9.50;56.50
52787;DHT22;38661;53.152;5.846;2023-02-26T14:19:03;9.80;56.30
52787;DHT22;38661;53.152;5.846;2023-02-26T14:23:57;9.50;56.50
52787;DHT22;38661;53.152;5.846;2023-02-26T14:26:27;9.30;56.60
52787;DHT22;38661;53.152;5.846;2023-02-26T14:28:57;9.20;55.90
52787;DHT22;38661;53.152;5.846;2023-02-26T14:31:24;9.30;55.30
52787;DHT22;38661;53.152;5.846;2023-02-26T14:34:05;9.70;55.50
52787;DHT22;38661;53.152;5.846;2023-02-26T14:36:48;10.10;55.70
52787;DHT22;38661;53.152;5.846;2023-02-26T14:39:26;10.50;55.20
52787;DHT22;38661;53.152;5.846;2023-02-26T14:41:59;10.20;54.20
52787;DHT22;38661;53.152;5.846;2023-02-26T14:44:30;9.80;55.00
52787;DHT22;38661;53.152;5.846;2023-02-26T14:46:57;9.40;55.80
52787;DHT22;38661;53.152;5.846;2023-02-26T14:49:29;9.20;56.20
52787;DHT22;38661;53.152;5.846;2023-02-26T14:57:53;10.00;55.50
52787;DHT22;38661;53.152;5.846;2023-02-26T15:20:13;10.80;53.60
52787;DHT22;38661;53.152;5.846;2023-02-26T15:24:39;10.00;52.90
52787;DHT22;38661;53.152;5.846;2023-02-26T15:27:06;9.90;55.00
52787;DHT22;38661;53.152;5.846;2023-02-26T15:29:35;9.90;54.40
52787;DHT22;38661;53.152;5.846;2023-02-26T15:32:23;9.80;54.40
52787;DHT22;38661;53.152;5.846;2023-02-26T15:35:17;9.80;53.10
52787;DHT22;38661;53.152;5.846;2023-02-26T15:37:50;9.70;53.50
52787;DHT22;38661;53.152;5.846;2023-02-26T15:40:17;9.90;54.30
52787;DHT22;38661;53.152;5.846;2023-02-26T15:42:44;10.10;53.00
52787;DHT22;38661;53.152;5.846;2023-02-26T15:45:26;10.20;54.70
52787;DHT22;38661;53.152;5.846;2023-02-26T15:47:58;10.50;54.20
52787;DHT22;38661;53.152;5.846;2023-02-26T15:50:27;10.60;53.80
52787;DHT22;38661;53.152;5.846;2023-02-26T15:52:57;10.60;53.90
52787;DHT22;38661;53.152;5.846;2023-02-26T15:55:24;10.70;53.90
52787;DHT22;38661;53.152;5.846;2023-02-26T15:57:51;10.70;53.80
52787;DHT22;38661;53.152;5.846;2023-02-26T16:00:20;10.70;53.90
52787;DHT22;38661;53.152;5.846;2023-02-26T16:02:52;10.60;54.50
52787;DHT22;38661;53.152;5.846;2023-02-26T16:05:22;10.10;55.10
52787;DHT22;38661;53.152;5.846;2023-02-26T16:07:48;9.60;55.50
52787;DHT22;38661;53.152;5.846;2023-02-26T16:10:25;9.50;56.80
52787;DHT22;38661;53.152;5.846;2023-02-26T16:12:51;9.40;57.00
52787;DHT22;38661;53.152;5.846;2023-02-26T16:15:33;9.10;57.50
52787;DHT22;38661;53.152;5.846;2023-02-26T16:18:02;9.00;57.90
52787;DHT22;38661;53.152;5.846;2023-02-26T16:20:44;9.00;57.90
52787;DHT22;38661;53.152;5.846;2023-02-26T16:23:35;9.00;58.40
52787;DHT22;38661;53.152;5.846;2023-02-26T16:26:04;8.60;59.00
52787;DHT22;38661;53.152;5.846;2023-02-26T16:28:41;8.30;59.90
52787;DHT22;38661;53.152;5.846;2023-02-26T16:31:21;8.20;60.70
52787;DHT22;38661;53.152;5.846;2023-02-26T16:33:59;8.00;61.00
52787;DHT22;38661;53.152;5.846;2023-02-26T16:36:40;7.90;61.60
52787;DHT22;38661;53.152;5.846;2023-02-26T16:41:35;7.70;63.10
52787;DHT22;38661;53.152;5.846;2023-02-26T16:46:56;7.20;64.00
52787;DHT22;38661;53.152;5.846;2023-02-26T16:49:34;6.90;64.80
52787;DHT22;38661;53.152;5.846;2023-02-26T16:52:01;6.60;65.40
52787;DHT22;38661;53.152;5.846;2023-02-26T16:54:39;6.40;66.40
52787;DHT22;38661;53.152;5.846;2023-02-26T16:57:12;6.20;66.90
52787;DHT22;38661;53.152;5.846;2023-02-26T16:59:39;6.00;67.30
52787;DHT22;38661;53.152;5.846;2023-02-26T17:02:15;5.90;68.10
52787;DHT22;38661;53.152;5.846;2023-02-26T17:04:45;5.70;68.10
52787;DHT22;38661;53.152;5.846;2023-02-26T17:07:33;5.60;68.80
52787;DHT22;38661;53.152;5.846;2023-02-26T17:10:08;5.50;69.20
52787;DHT22;38661;53.152;5.846;2023-02-26T17:12:42;5.40;69.70
52787;DHT22;38661;53.152;5.846;2023-02-26T17:15:32;5.20;69.90
52787;DHT22;38661;53.152;5.846;2023-02-26T17:17:58;5.10;70.20
52787;DHT22;38661;53.152;5.846;2023-02-26T17:20:25;5.00;70.40
52787;DHT22;38661;53.152;5.846;2023-02-26T17:22:52;4.90;70.80
52787;DHT22;38661;53.152;5.846;2023-02-26T17:25:20;4.80;71.10
52787;DHT22;38661;53.152;5.846;2023-02-26T17:27:46;4.80;71.60
52787;DHT22;38661;53.152;5.846;2023-02-26T17:30:14;4.60;71.60
52787;DHT22;38661;53.152;5.846;2023-02-26T17:32:41;4.60;72.00
52787;DHT22;38661;53.152;5.846;2023-02-26T17:35:11;4.60;72.70
52787;DHT22;38661;53.152;5.846;2023-02-26T17:37:37;4.40;72.40
52787;DHT22;38661;53.152;5.846;2023-02-26T17:40:27;4.30;72.40
52787;DHT22;38661;53.152;5.846;2023-02-26T17:42:52;4.20;72.40
52787;DHT22;38661;53.152;5.846;2023-02-26T17:45:18;4.10;72.60
52787;DHT22;38661;53.152;5.846;2023-02-26T17:47:45;4.10;72.70
52787;DHT22;38661;53.152;5.846;2023-02-26T17:50:39;4.10;73.00
52787;DHT22;38661;53.152;5.846;2023-02-26T17:53:06;4.10;73.50
52787;DHT22;38661;53.152;5.846;2023-02-26T17:55:33;4.10;73.50
52787;DHT22;38661;53.152;5.846;2023-02-26T17:58:00;4.00;73.70
52787;DHT22;38661;53.152;5.846;2023-02-26T18:00:26;3.90;73.80
52787;DHT22;38661;53.152;5.846;2023-02-26T18:02:52;3.90;73.90
52787;DHT22;38661;53.152;5.846;2023-02-26T18:05:19;3.80;74.00
52787;DHT22;38661;53.152;5.846;2023-02-26T18:07:46;3.70;74.00
52787;DHT22;38661;53.152;5.846;2023-02-26T18:10:18;3.70;74.00
52787;DHT22;38661;53.152;5.846;2023-02-26T18:12:44;3.60;74.10
52787;DHT22;38661;53.152;5.846;2023-02-26T18:15:10;3.60;74.50
52787;DHT22;38661;53.152;5.846;2023-02-26T18:17:36;3.60;74.60
52787;DHT22;38661;53.152;5.846;2023-02-26T18:20:03;3.50;74.90
52787;DHT22;38661;53.152;5.846;2023-02-26T18:22:31;3.50;74.90
52787;DHT22;38661;53.152;5.846;2023-02-26T18:24:58;3.40;74.90
52787;DHT22;38661;53.152;5.846;2023-02-26T18:27:24;3.40;75.10
52787;DHT22;38661;53.152;5.846;2023-02-26T18:29:50;3.30;75.10